createdAt,value
2019-03-16T00:00:59.025Z,44.4
2019-03-16T00:01:59.262Z,44.4
2019-03-16T00:02:59.310Z,44.41
2019-03-16T00:03:59.033Z,44.37
2019-03-16T00:04:58.884Z,44.4
2019-03-16T00:05:59.022Z,44.37
2019-03-16T00:06:59.059Z,44.4
2019-03-16T00:07:58.930Z,44.43
2019-03-16T00:08:59.077Z,44.37
2019-03-16T00:09:59.135Z,44.41
2019-03-16T00:10:59.004Z,44.42
2019-03-16T00:12:00.699Z,44.43
2019-03-16T00:12:59.284Z,44.46
2019-03-16T00:13:59.011Z,44.46
2019-03-16T00:14:59.142Z,44.43
2019-03-16T00:15:58.944Z,44.48
2019-03-16T00:16:59.226Z,44.44
2019-03-16T00:17:59.178Z,44.47
2019-03-16T00:18:58.963Z,44.46
2019-03-16T00:19:58.999Z,44.39
2019-03-16T00:20:59.227Z,44.46
2019-03-16T00:21:59.052Z,44.47
2019-03-16T00:22:59.228Z,44.48
2019-03-16T00:23:59.018Z,44.53
2019-03-16T00:24:59.089Z,44.51
2019-03-16T00:25:59.404Z,44.51
2019-03-16T00:26:58.905Z,44.49
2019-03-16T00:27:59.048Z,44.49
2019-03-16T00:28:59.140Z,44.52
2019-03-16T00:29:58.956Z,44.52
2019-03-16T00:30:59.167Z,44.49
2019-03-16T00:32:13.554Z,44.52
2019-03-16T00:32:58.980Z,44.52
2019-03-16T00:33:59.131Z,44.53
2019-03-16T00:34:58.978Z,44.49
2019-03-16T00:35:59.152Z,44.48
2019-03-16T00:36:59.245Z,44.47
2019-03-16T00:37:59.088Z,44.49
2019-03-16T00:38:59.188Z,44.45
2019-03-16T00:39:59.140Z,44.46
2019-03-16T00:40:59.060Z,44.5
2019-03-16T00:41:59.398Z,44.49
2019-03-16T00:42:59.162Z,44.52
2019-03-16T00:43:59.135Z,44.5
2019-03-16T00:44:59.125Z,44.48
2019-03-16T00:45:59.038Z,44.52
2019-03-16T00:46:59.149Z,44.53
2019-03-16T00:47:58.958Z,44.51
2019-03-16T00:48:58.984Z,44.52
2019-03-16T00:49:59.176Z,44.56
2019-03-16T00:50:58.970Z,44.55
2019-03-16T00:51:59.140Z,44.54
2019-03-16T00:52:59.226Z,44.54
2019-03-16T00:53:59.085Z,44.57
2019-03-16T00:54:59.189Z,44.57
2019-03-16T00:55:59.030Z,44.57
2019-03-16T00:56:59.086Z,44.54
2019-03-16T00:57:59.140Z,44.51
2019-03-16T00:58:59.172Z,44.56
2019-03-16T00:59:59.005Z,44.52
2019-03-16T01:00:59.544Z,44.48
2019-03-16T01:01:58.957Z,44.55
2019-03-16T01:02:59.069Z,44.52
2019-03-16T01:03:59.471Z,44.51
2019-03-16T01:04:58.975Z,44.56
2019-03-16T01:05:59.151Z,44.55
2019-03-16T01:06:59.021Z,44.54
2019-03-16T01:07:58.977Z,44.56
2019-03-16T01:08:59.181Z,44.55
2019-03-16T01:09:59.042Z,44.55
2019-03-16T01:10:59.174Z,44.54
2019-03-16T01:11:59.144Z,44.52
2019-03-16T01:12:59.010Z,44.52
2019-03-16T01:13:59.101Z,44.57
2019-03-16T01:14:59.183Z,44.57
2019-03-16T01:15:59.046Z,44.59
2019-03-16T01:16:59.095Z,44.58
2019-03-16T01:17:59.018Z,44.61
2019-03-16T01:18:59.072Z,44.56
2019-03-16T01:19:59.120Z,44.56
2019-03-16T01:20:58.919Z,44.58
2019-03-16T01:21:59.079Z,44.59
2019-03-16T01:22:59.229Z,44.59
2019-03-16T01:23:59.119Z,44.55
2019-03-16T01:24:59.216Z,44.58
2019-03-16T01:25:58.962Z,44.59
2019-03-16T01:26:58.960Z,44.56
2019-03-16T01:27:59.136Z,44.55
2019-03-16T01:28:59.012Z,44.58
2019-03-16T01:29:58.940Z,44.58
2019-03-16T01:30:59.117Z,44.58
2019-03-16T01:31:59.123Z,44.55
2019-03-16T01:32:59.115Z,44.58
2019-03-16T01:33:59.110Z,44.57
2019-03-16T01:34:59.024Z,44.55
2019-03-16T01:35:59.370Z,44.55
2019-03-16T01:36:59.002Z,44.58
2019-03-16T01:37:59.104Z,44.62
2019-03-16T01:38:59.112Z,44.57
2019-03-16T01:39:58.926Z,44.57
2019-03-16T01:40:59.256Z,44.57
2019-03-16T01:41:58.899Z,44.61
2019-03-16T01:42:59.044Z,44.6
2019-03-16T01:43:59.106Z,44.62
2019-03-16T01:44:59.241Z,44.63
2019-03-16T01:45:59.009Z,44.64
2019-03-16T01:46:59.179Z,44.64
2019-03-16T01:47:59.043Z,44.68
2019-03-16T01:48:59.115Z,44.67
2019-03-16T01:49:58.827Z,44.65
2019-03-16T01:50:59.004Z,44.62
2019-03-16T01:51:59.170Z,44.65
2019-03-16T01:52:58.875Z,44.67
2019-03-16T01:53:59.266Z,44.64
2019-03-16T01:54:59.072Z,44.62
2019-03-16T01:55:59.040Z,44.62
2019-03-16T01:56:59.002Z,44.62
2019-03-16T01:57:59.062Z,44.64
2019-03-16T01:58:58.950Z,44.64
2019-03-16T01:59:59.058Z,44.68
2019-03-16T02:00:59.203Z,44.59
2019-03-16T02:01:58.983Z,44.6
2019-03-16T02:02:59.098Z,44.63
2019-03-16T02:03:58.861Z,44.63
2019-03-16T02:04:59.099Z,44.61
2019-03-16T02:05:59.500Z,44.61
2019-03-16T02:07:00.852Z,44.66
2019-03-16T02:07:59.103Z,44.64
2019-03-16T02:08:59.120Z,44.68
2019-03-16T02:09:58.982Z,44.61
2019-03-16T02:10:59.000Z,44.65
2019-03-16T02:12:00.988Z,44.62
2019-03-16T02:12:59.016Z,44.61
2019-03-16T02:13:59.343Z,44.64
2019-03-16T02:14:58.848Z,44.66
2019-03-16T02:16:11.883Z,44.63
2019-03-16T02:16:59.141Z,44.65
2019-03-16T02:17:59.162Z,44.67
2019-03-16T02:18:59.020Z,44.63
2019-03-16T02:19:59.160Z,44.61
2019-03-16T02:20:58.972Z,44.63
2019-03-16T02:21:59.139Z,44.59
2019-03-16T02:22:59.072Z,44.63
2019-03-16T02:23:58.875Z,44.59
2019-03-16T02:24:59.219Z,44.63
2019-03-16T02:25:59.188Z,44.64
2019-03-16T02:26:59.062Z,44.67
2019-03-16T02:27:59.109Z,44.63
2019-03-16T02:28:58.985Z,44.68
2019-03-16T02:29:59.038Z,44.64
2019-03-16T02:30:59.131Z,44.67
2019-03-16T02:31:59.087Z,44.66
2019-03-16T02:33:14.340Z,44.68
2019-03-16T02:33:59.124Z,44.72
2019-03-16T02:34:59.162Z,44.68
2019-03-16T02:35:59.103Z,44.68
2019-03-16T02:36:59.178Z,44.68
2019-03-16T02:37:58.949Z,44.65
2019-03-16T02:38:59.090Z,44.69
2019-03-16T02:39:59.361Z,44.69
2019-03-16T02:40:58.992Z,44.69
2019-03-16T02:41:59.085Z,44.66
2019-03-16T02:42:59.015Z,44.65
2019-03-16T02:43:59.231Z,44.68
2019-03-16T02:44:59.104Z,44.7
2019-03-16T02:45:59.223Z,44.72
2019-03-16T02:46:59.064Z,44.72
2019-03-16T02:47:58.999Z,44.73
2019-03-16T02:48:58.989Z,44.72
2019-03-16T02:49:59.432Z,44.73
2019-03-16T02:50:58.956Z,44.73
2019-03-16T02:51:58.965Z,44.7
2019-03-16T02:52:59.512Z,44.72
2019-03-16T02:53:59.146Z,44.67
2019-03-16T02:54:59.169Z,44.69
2019-03-16T02:55:59.135Z,44.7
2019-03-16T02:56:58.948Z,44.72
2019-03-16T02:57:59.155Z,44.67
2019-03-16T02:58:58.930Z,44.7
2019-03-16T02:59:59.127Z,44.69
2019-03-16T03:00:59.105Z,44.67
2019-03-16T03:01:58.947Z,44.71
2019-03-16T03:02:59.134Z,44.69
2019-03-16T03:03:59.263Z,44.67
2019-03-16T03:04:59.046Z,44.66
2019-03-16T03:05:59.065Z,44.74
2019-03-16T03:06:59.083Z,44.73
2019-03-16T03:07:59.167Z,44.68
2019-03-16T03:08:59.258Z,44.69
2019-03-16T03:09:58.890Z,44.72
2019-03-16T03:11:00.933Z,44.68
2019-03-16T03:11:59.786Z,44.7
2019-03-16T03:12:58.970Z,44.66
2019-03-16T03:13:58.988Z,44.68
2019-03-16T03:14:59.121Z,44.72
2019-03-16T03:15:59.040Z,44.72
2019-03-16T03:16:59.400Z,44.73
2019-03-16T03:17:59.118Z,44.69
2019-03-16T03:18:59.059Z,44.69
2019-03-16T03:19:59.159Z,44.67
2019-03-16T03:20:58.893Z,44.68
2019-03-16T03:21:59.019Z,44.68
2019-03-16T03:22:59.127Z,44.72
2019-03-16T03:23:58.997Z,44.69
2019-03-16T03:24:59.127Z,44.69
2019-03-16T03:25:59.371Z,44.71
2019-03-16T03:26:58.899Z,44.68
2019-03-16T03:27:59.050Z,44.71
2019-03-16T03:28:59.277Z,44.74
2019-03-16T03:29:59.051Z,44.72
2019-03-16T03:30:58.955Z,44.69
2019-03-16T03:31:59.043Z,44.74
2019-03-16T03:32:59.541Z,44.72
2019-03-16T03:34:03.760Z,44.73
2019-03-16T03:34:59.067Z,44.76
2019-03-16T03:35:59.001Z,44.72
2019-03-16T03:36:58.852Z,44.76
2019-03-16T03:37:59.146Z,44.73
2019-03-16T03:38:59.068Z,44.72
2019-03-16T03:39:59.062Z,44.77
2019-03-16T03:41:02.738Z,44.78
2019-03-16T03:41:59.087Z,44.73
2019-03-16T03:42:58.944Z,44.77
2019-03-16T03:43:59.150Z,44.75
2019-03-16T03:44:58.974Z,44.75
2019-03-16T03:45:59.238Z,44.75
2019-03-16T03:46:59.159Z,44.75
2019-03-16T03:47:58.978Z,44.75
2019-03-16T03:48:59.050Z,44.77
2019-03-16T03:49:59.205Z,44.78
2019-03-16T03:50:59.058Z,44.78
2019-03-16T03:51:59.283Z,44.74
2019-03-16T03:52:58.861Z,44.75
2019-03-16T03:53:59.608Z,44.75
2019-03-16T03:54:59.607Z,44.75
2019-03-16T03:55:58.869Z,44.75
2019-03-16T03:56:58.965Z,44.73
2019-03-16T03:57:59.005Z,44.78
2019-03-16T03:58:59.304Z,44.73
2019-03-16T03:59:59.220Z,44.76
2019-03-16T04:00:59.188Z,44.73
2019-03-16T04:01:59.023Z,44.75
2019-03-16T04:02:59.083Z,44.76
2019-03-16T04:04:58.874Z,44.75
2019-03-16T04:05:59.116Z,44.78
2019-03-16T04:06:59.242Z,44.74
2019-03-16T04:07:59.048Z,44.76
2019-03-16T04:08:59.125Z,44.74
2019-03-16T04:09:58.914Z,44.73
2019-03-16T04:10:58.959Z,44.71
2019-03-16T04:11:59.173Z,44.71
2019-03-16T04:12:59.184Z,44.72
2019-03-16T04:13:59.106Z,44.79
2019-03-16T04:14:59.321Z,44.75
2019-03-16T04:15:59.014Z,44.76
2019-03-16T04:16:59.137Z,44.78
2019-03-16T04:17:58.819Z,44.8
2019-03-16T04:18:58.955Z,44.72
2019-03-16T04:19:59.885Z,44.75
2019-03-16T04:20:59.149Z,44.82
2019-03-16T04:21:58.981Z,44.82
2019-03-16T04:22:59.090Z,44.82
2019-03-16T04:23:58.902Z,44.79
2019-03-16T04:24:59.069Z,44.83
2019-03-16T04:25:59.369Z,44.81
2019-03-16T04:27:17.267Z,44.82
2019-03-16T04:27:58.972Z,44.8
2019-03-16T04:28:59.164Z,44.79
2019-03-16T04:29:59.021Z,44.77
2019-03-16T04:30:59.046Z,44.81
2019-03-16T04:31:59.179Z,44.79
2019-03-16T04:32:58.931Z,44.75
2019-03-16T04:33:59.043Z,44.77
2019-03-16T04:34:58.885Z,44.79
2019-03-16T04:35:58.919Z,44.77
2019-03-16T04:36:59.098Z,44.78
2019-03-16T04:37:59.049Z,44.81
2019-03-16T04:38:58.976Z,44.8
2019-03-16T04:39:59.153Z,44.82
2019-03-16T04:40:59.255Z,44.85
2019-03-16T04:41:59.113Z,44.79
2019-03-16T04:42:58.913Z,44.8
2019-03-16T04:43:58.958Z,44.71
2019-03-16T04:44:58.967Z,44.7
2019-03-16T04:45:58.852Z,44.74
2019-03-16T04:46:59.017Z,44.74
2019-03-16T04:47:58.980Z,44.69
2019-03-16T04:48:59.074Z,44.69
2019-03-16T04:49:59.162Z,44.67
2019-03-16T04:50:58.934Z,44.71
2019-03-16T04:51:59.044Z,44.66
2019-03-16T04:52:59.060Z,44.63
2019-03-16T04:53:58.854Z,44.61
2019-03-16T04:54:58.925Z,44.59
2019-03-16T04:55:59.278Z,44.55
2019-03-16T04:56:58.955Z,44.54
2019-03-16T04:57:58.946Z,44.53
2019-03-16T04:58:59.179Z,44.52
2019-03-16T04:59:58.902Z,44.54
2019-03-16T05:00:59.063Z,44.49
2019-03-16T05:01:58.905Z,44.5
2019-03-16T05:02:59.006Z,44.47
2019-03-16T05:03:59.077Z,44.51
2019-03-16T05:04:58.802Z,44.46
2019-03-16T05:05:58.985Z,44.48
2019-03-16T05:06:59.012Z,44.53
2019-03-16T05:07:58.962Z,44.41
2019-03-16T05:08:59.018Z,44.51
2019-03-16T05:09:59.113Z,44.48
2019-03-16T05:10:58.991Z,44.49
2019-03-16T05:11:59.028Z,44.46
2019-03-16T05:12:59.115Z,44.43
2019-03-16T05:13:58.878Z,44.51
2019-03-16T05:14:59.082Z,44.49
2019-03-16T05:15:58.991Z,44.53
2019-03-16T05:16:58.903Z,44.43
2019-03-16T05:17:59.127Z,44.46
2019-03-16T05:18:58.980Z,44.49
2019-03-16T05:19:58.993Z,44.46
2019-03-16T05:20:58.893Z,44.49
2019-03-16T05:21:58.916Z,44.46
2019-03-16T05:22:58.989Z,44.35
2019-03-16T05:23:58.950Z,44.43
2019-03-16T05:24:58.904Z,44.44
2019-03-16T05:25:59.266Z,44.4
2019-03-16T05:26:58.856Z,44.37
2019-03-16T05:27:59.029Z,44.5
2019-03-16T05:28:59.029Z,44.52
2019-03-16T05:29:58.839Z,44.5
2019-03-16T05:30:58.963Z,44.45
2019-03-16T05:31:58.864Z,44.54
2019-03-16T05:32:59.001Z,44.37
2019-03-16T05:33:58.963Z,44.53
2019-03-16T05:34:58.971Z,44.55
2019-03-16T05:35:58.926Z,44.52
2019-03-16T05:36:59.168Z,44.57
2019-03-16T05:37:58.934Z,44.47
2019-03-16T05:38:58.939Z,44.55
2019-03-16T05:39:59.038Z,44.44
2019-03-16T05:40:58.881Z,44.46
2019-03-16T05:41:59.042Z,44.43
2019-03-16T05:42:58.817Z,44.52
2019-03-16T05:43:58.963Z,44.43
2019-03-16T05:44:58.919Z,44.37
2019-03-16T05:45:59.040Z,44.56
2019-03-16T05:46:58.937Z,44.44
2019-03-16T05:47:59.038Z,44.45
2019-03-16T05:48:58.874Z,44.4
2019-03-16T05:49:59.023Z,44.48
2019-03-16T05:50:58.847Z,44.47
2019-03-16T05:51:58.989Z,44.44
2019-03-16T05:52:59.035Z,44.43
2019-03-16T05:53:58.842Z,44.46
2019-03-16T05:54:58.890Z,44.43
2019-03-16T05:55:59.058Z,44.47
2019-03-16T05:56:58.829Z,44.43
2019-03-16T05:57:58.889Z,44.46
2019-03-16T05:58:59.087Z,44.39
2019-03-16T05:59:58.986Z,44.44
2019-03-16T06:00:59.072Z,44.41
2019-03-16T06:01:58.814Z,44.44
2019-03-16T06:02:58.882Z,44.43
2019-03-16T06:03:58.935Z,44.47
2019-03-16T06:05:11.790Z,44.47
2019-03-16T06:05:58.887Z,44.41
2019-03-16T06:06:59.222Z,44.42
2019-03-16T06:07:59.107Z,44.45
2019-03-16T06:08:58.937Z,44.4
2019-03-16T06:09:58.976Z,44.47
2019-03-16T06:10:58.929Z,44.41
2019-03-16T06:11:58.953Z,44.44
2019-03-16T06:12:58.955Z,44.45
2019-03-16T06:13:59.221Z,44.42
2019-03-16T06:14:58.947Z,44.41
2019-03-16T06:15:58.879Z,44.34
2019-03-16T06:16:58.861Z,44.37
2019-03-16T06:17:58.994Z,44.36
2019-03-16T06:18:59.159Z,44.37
2019-03-16T06:19:58.897Z,44.4
2019-03-16T06:20:59.342Z,44.37
2019-03-16T06:21:59.005Z,44.37
2019-03-16T06:22:59.008Z,44.37
2019-03-16T06:23:59.069Z,44.35
2019-03-16T06:24:58.846Z,44.38
2019-03-16T06:25:58.963Z,44.33
2019-03-16T06:26:59.045Z,44.38
2019-03-16T06:27:58.899Z,44.36
2019-03-16T06:28:58.987Z,44.31
2019-03-16T06:29:58.886Z,44.38
2019-03-16T06:30:58.934Z,44.36
2019-03-16T06:31:58.973Z,44.38
2019-03-16T06:32:58.907Z,44.35
2019-03-16T06:33:58.984Z,44.32
2019-03-16T06:34:59.107Z,44.42
2019-03-16T06:35:58.972Z,44.36
2019-03-16T06:36:59.016Z,44.36
2019-03-16T06:37:58.810Z,44.33
2019-03-16T06:38:59.010Z,44.34
2019-03-16T06:39:58.993Z,44.3
2019-03-16T06:40:58.823Z,44.3
2019-03-16T06:41:59.025Z,44.3
2019-03-16T06:42:59.021Z,44.34
2019-03-16T06:43:58.942Z,44.35
2019-03-16T06:44:58.995Z,44.3
2019-03-16T06:45:58.841Z,44.25
2019-03-16T06:46:58.896Z,44.33
2019-03-16T06:47:58.943Z,44.31
2019-03-16T06:48:59.216Z,44.31
2019-03-16T06:49:58.952Z,44.27
2019-03-16T06:50:59.068Z,44.23
2019-03-16T06:51:58.910Z,44.29
2019-03-16T06:52:58.960Z,44.24
2019-03-16T06:53:58.825Z,44.25
2019-03-16T06:54:58.839Z,44.22
2019-03-16T06:55:59.070Z,44.19
2019-03-16T06:56:58.892Z,44.25
2019-03-16T06:57:59.314Z,44.22
2019-03-16T06:58:58.869Z,44.25
2019-03-16T06:59:58.890Z,44.22
2019-03-16T07:00:58.934Z,44.21
2019-03-16T07:01:58.934Z,44.19
2019-03-16T07:02:58.976Z,44.25
2019-03-16T07:03:59.035Z,44.19
2019-03-16T07:04:58.845Z,44.23
2019-03-16T07:05:58.967Z,44.24
2019-03-16T07:06:58.741Z,44.2
2019-03-16T07:07:58.860Z,44.23
2019-03-16T07:08:58.926Z,44.2
2019-03-16T07:09:58.827Z,44.24
2019-03-16T07:10:58.972Z,44.16
2019-03-16T07:11:59.026Z,44.19
2019-03-16T07:12:58.883Z,44.19
2019-03-16T07:13:58.942Z,44.17
2019-03-16T07:14:58.742Z,44.14
2019-03-16T07:15:58.920Z,44.19
2019-03-16T07:17:02.856Z,44.13
2019-03-16T07:17:58.760Z,44.14
2019-03-16T07:18:59.523Z,44.18
2019-03-16T07:19:58.968Z,44.17
2019-03-16T07:20:58.914Z,44.12
2019-03-16T07:21:58.913Z,44.13
2019-03-16T07:22:59.058Z,44.11
2019-03-16T07:23:59.031Z,44.13
2019-03-16T07:24:59.050Z,44.14
2019-03-16T07:25:58.765Z,44.12
2019-03-16T07:26:58.858Z,44.11
2019-03-16T07:27:59.025Z,44.15
2019-03-16T07:28:58.922Z,44.08
2019-03-16T07:29:58.966Z,44.13
2019-03-16T07:30:58.994Z,44.1
2019-03-16T07:31:58.809Z,44.09
2019-03-16T07:32:58.854Z,44.11
2019-03-16T07:33:59.610Z,44.13
2019-03-16T07:34:58.920Z,44.11
2019-03-16T07:35:58.893Z,44.06
2019-03-16T07:36:58.736Z,44.05
2019-03-16T07:37:58.922Z,44.1
2019-03-16T07:38:59.004Z,44.04
2019-03-16T07:39:58.867Z,44.08
2019-03-16T07:40:58.949Z,44.06
2019-03-16T07:42:01.106Z,44.1
2019-03-16T07:42:58.875Z,44.05
2019-03-16T07:43:58.927Z,44.05
2019-03-16T07:45:09.440Z,44.01
2019-03-16T07:45:58.822Z,43.99
2019-03-16T07:46:58.965Z,44.03
2019-03-16T07:47:58.940Z,43.99
2019-03-16T07:48:58.850Z,44.03
2019-03-16T07:49:59.117Z,43.98
2019-03-16T07:50:58.937Z,44.02
2019-03-16T07:51:58.797Z,44.01
2019-03-16T07:52:58.972Z,43.98
2019-03-16T07:53:58.844Z,44.03
2019-03-16T07:54:59.250Z,43.99
2019-03-16T07:55:59.001Z,44.02
2019-03-16T07:56:58.959Z,43.98
2019-03-16T07:57:58.864Z,43.96
2019-03-16T07:58:59.056Z,43.99
2019-03-16T07:59:58.760Z,43.95
2019-03-16T08:00:58.980Z,43.97
2019-03-16T08:01:59.073Z,43.96
2019-03-16T08:02:59.102Z,43.94
2019-03-16T08:03:58.992Z,43.95
2019-03-16T08:04:58.816Z,43.94
2019-03-16T08:05:58.911Z,43.97
2019-03-16T08:06:58.873Z,43.94
2019-03-16T08:07:58.833Z,43.96
2019-03-16T08:08:59.250Z,43.94
2019-03-16T08:10:03.669Z,43.96
2019-03-16T08:10:59.141Z,43.92
2019-03-16T08:11:58.896Z,43.95
2019-03-16T08:12:58.943Z,43.92
2019-03-16T08:13:58.809Z,43.92
2019-03-16T08:14:58.998Z,43.92
2019-03-16T08:15:58.797Z,43.92
2019-03-16T08:16:58.949Z,43.95
2019-03-16T08:17:59.061Z,43.93
2019-03-16T08:18:58.747Z,43.93
2019-03-16T08:19:58.989Z,43.93
2019-03-16T08:20:59.034Z,43.92
2019-03-16T08:21:59.019Z,43.93
2019-03-16T08:22:59.025Z,43.94
2019-03-16T08:23:58.782Z,43.93
2019-03-16T08:24:58.857Z,43.94
2019-03-16T08:25:58.990Z,43.92
2019-03-16T08:26:58.768Z,43.9
2019-03-16T08:27:58.929Z,43.91
2019-03-16T08:28:59.892Z,43.89
2019-03-16T08:29:58.799Z,43.88
2019-03-16T08:30:58.956Z,43.88
2019-03-16T08:31:58.825Z,43.88
2019-03-16T08:32:58.832Z,43.83
2019-03-16T08:33:58.953Z,43.89
2019-03-16T08:35:01.265Z,43.87
2019-03-16T08:35:58.971Z,43.87
2019-03-16T08:36:59.104Z,43.85
2019-03-16T08:37:59.051Z,43.88
2019-03-16T08:38:59.007Z,43.84
2019-03-16T08:39:58.704Z,43.88
2019-03-16T08:40:58.819Z,43.87
2019-03-16T08:41:59.045Z,43.85
2019-03-16T08:42:58.869Z,43.87
2019-03-16T08:43:58.924Z,43.84
2019-03-16T08:44:58.724Z,43.87
2019-03-16T08:45:58.923Z,43.85
2019-03-16T08:46:59.033Z,43.86
2019-03-16T08:47:58.845Z,43.82
2019-03-16T08:48:58.945Z,43.81
2019-03-16T08:49:59.064Z,43.84
2019-03-16T08:50:58.873Z,43.84
2019-03-16T08:51:59.016Z,43.84
2019-03-16T08:52:58.665Z,43.85
2019-03-16T08:53:58.947Z,43.82
2019-03-16T08:54:58.734Z,43.85
2019-03-16T08:55:58.807Z,43.81
2019-03-16T08:56:58.939Z,43.81
2019-03-16T08:58:06.720Z,43.83
2019-03-16T08:58:58.950Z,43.81
2019-03-16T08:59:59.401Z,43.78
2019-03-16T09:00:58.852Z,43.81
2019-03-16T09:01:58.957Z,43.82
2019-03-16T09:02:59.015Z,43.83
2019-03-16T09:03:58.844Z,43.81
2019-03-16T09:04:58.964Z,43.84
2019-03-16T09:05:58.825Z,43.8
2019-03-16T09:06:58.842Z,43.81
2019-03-16T09:07:59.020Z,43.8
2019-03-16T09:08:58.877Z,43.83
2019-03-16T09:09:58.952Z,43.84
2019-03-16T09:10:59.029Z,43.82
2019-03-16T09:11:58.771Z,43.81
2019-03-16T09:12:58.861Z,43.84
2019-03-16T09:13:58.705Z,43.81
2019-03-16T09:14:58.791Z,43.87
2019-03-16T09:15:58.903Z,43.84
2019-03-16T09:16:58.922Z,43.8
2019-03-16T09:17:58.750Z,43.82
2019-03-16T09:18:58.925Z,43.82
2019-03-16T09:19:58.809Z,43.83
2019-03-16T09:20:59.438Z,43.82
2019-03-16T09:21:59.098Z,43.82
2019-03-16T09:22:58.877Z,43.96
2019-03-16T09:23:58.781Z,44.51
2019-03-16T09:24:58.961Z,44.73
2019-03-16T09:25:58.821Z,44.85
2019-03-16T09:26:58.907Z,44.95
2019-03-16T09:27:58.783Z,45.15
2019-03-16T09:29:00.732Z,45.24
2019-03-16T09:29:59.012Z,45.36
2019-03-16T09:30:58.752Z,45.56
2019-03-16T09:31:58.905Z,45.5
2019-03-16T09:32:59.024Z,45.65
2019-03-16T09:33:58.869Z,45.76
2019-03-16T09:34:59.508Z,45.73
2019-03-16T09:35:59.060Z,45.65
2019-03-16T09:36:58.748Z,45.63
2019-03-16T09:37:59.783Z,45.46
2019-03-16T09:38:58.970Z,45.4
2019-03-16T09:39:58.911Z,45.28
2019-03-16T09:40:59.100Z,45.24
2019-03-16T09:41:58.789Z,45.16
2019-03-16T09:42:59.208Z,45.11
2019-03-16T09:44:02.398Z,45.05
2019-03-16T09:44:58.842Z,44.93
2019-03-16T09:45:58.970Z,44.91
2019-03-16T09:46:58.723Z,44.82
2019-03-16T09:47:58.910Z,44.78
2019-03-16T09:48:58.877Z,44.79
2019-03-16T09:49:58.857Z,44.7
2019-03-16T09:50:59.149Z,44.7
2019-03-16T09:51:58.901Z,44.63
2019-03-16T09:52:58.977Z,44.6
2019-03-16T09:53:58.950Z,44.53
2019-03-16T09:54:59.032Z,44.52
2019-03-16T09:55:58.915Z,44.52
2019-03-16T09:57:02.198Z,44.5
2019-03-16T09:57:58.767Z,44.45
2019-03-16T09:58:58.773Z,44.38
2019-03-16T09:59:58.936Z,44.41
2019-03-16T10:00:58.876Z,44.35
2019-03-16T10:01:58.924Z,44.38
2019-03-16T10:02:58.941Z,44.38
2019-03-16T10:03:58.955Z,44.37
2019-03-16T10:04:58.978Z,44.33
2019-03-16T10:05:58.952Z,44.33
2019-03-16T10:06:58.851Z,44.28
2019-03-16T10:07:58.981Z,44.28
2019-03-16T10:08:58.793Z,44.29
2019-03-16T10:09:58.882Z,44.29
2019-03-16T10:10:58.916Z,44.27
2019-03-16T10:11:58.831Z,44.27
2019-03-16T10:12:59.081Z,44.27
2019-03-16T10:13:58.921Z,44.41
2019-03-16T10:14:58.754Z,44.75
2019-03-16T10:15:58.871Z,44.49
2019-03-16T10:16:58.861Z,45.08
2019-03-16T10:17:58.755Z,44.87
2019-03-16T10:18:58.947Z,45.1
2019-03-16T10:19:58.746Z,44.92
2019-03-16T10:20:58.771Z,44.69
2019-03-16T10:21:58.942Z,44.5
2019-03-16T10:22:59.008Z,44.43
2019-03-16T10:23:58.836Z,44.36
2019-03-16T10:24:58.982Z,44.33
2019-03-16T10:25:59.086Z,44.31
2019-03-16T10:26:59.737Z,44.23
2019-03-16T10:27:58.926Z,44.21
2019-03-16T10:28:58.896Z,44.24
2019-03-16T10:30:04.132Z,44.2
2019-03-16T10:30:58.717Z,44.18
2019-03-16T10:31:59.051Z,44.17
2019-03-16T10:32:58.942Z,44.19
2019-03-16T10:33:58.764Z,44.19
2019-03-16T10:34:58.975Z,44.18
2019-03-16T10:35:59.198Z,44.14
2019-03-16T10:36:58.763Z,44.14
2019-03-16T10:37:59.162Z,44.2
2019-03-16T10:38:58.817Z,44.19
2019-03-16T10:39:58.993Z,44.23
2019-03-16T10:40:58.900Z,44.21
2019-03-16T10:41:58.826Z,44.24
2019-03-16T10:42:58.818Z,44.15
2019-03-16T10:43:58.652Z,44.17
2019-03-16T10:44:58.831Z,44.15
2019-03-16T10:45:59.236Z,44.18
2019-03-16T10:46:58.988Z,44.15
2019-03-16T10:47:58.870Z,44.16
2019-03-16T10:48:58.938Z,44.15
2019-03-16T10:49:58.809Z,44.12
2019-03-16T10:50:58.881Z,44.17
2019-03-16T10:51:58.991Z,44.12
2019-03-16T10:52:58.717Z,44.15
2019-03-16T10:53:58.916Z,44.14
2019-03-16T10:54:58.895Z,44.1
2019-03-16T10:55:59.025Z,44.15
2019-03-16T10:56:59.005Z,44.16
2019-03-16T10:57:58.997Z,44.16
2019-03-16T10:58:58.760Z,44.13
2019-03-16T10:59:58.863Z,44.18
2019-03-16T11:00:59.011Z,44.19
2019-03-16T11:01:58.845Z,44.21
2019-03-16T11:02:58.888Z,44.2
2019-03-16T11:03:58.716Z,44.19
2019-03-16T11:04:58.798Z,44.19
2019-03-16T11:05:58.891Z,44.2
2019-03-16T11:06:58.824Z,44.24
2019-03-16T11:07:58.760Z,44.18
2019-03-16T11:08:59.237Z,44.17
2019-03-16T11:09:59.065Z,44.2
2019-03-16T11:10:58.801Z,44.15
2019-03-16T11:11:58.702Z,44.16
2019-03-16T11:12:58.828Z,44.15
2019-03-16T11:13:58.879Z,44.17
2019-03-16T11:14:58.766Z,44.14
2019-03-16T11:15:58.941Z,44.18
2019-03-16T11:16:58.898Z,44.21
2019-03-16T11:17:58.748Z,44.2
2019-03-16T11:18:58.927Z,44.15
2019-03-16T11:19:59.931Z,44.25
2019-03-16T11:20:58.864Z,44.17
2019-03-16T11:21:58.875Z,44.2
2019-03-16T11:22:58.995Z,44.2
2019-03-16T11:23:58.795Z,44.15
2019-03-16T11:24:58.964Z,44.15
2019-03-16T11:25:58.810Z,44.17
2019-03-16T11:26:58.892Z,44.15
2019-03-16T11:27:58.942Z,44.3
2019-03-16T11:29:09.683Z,44.38
2019-03-16T11:29:58.863Z,44.49
2019-03-16T11:30:58.998Z,44.69
2019-03-16T11:31:58.720Z,44.93
2019-03-16T11:32:58.867Z,45.07
2019-03-16T11:33:58.830Z,45.2
2019-03-16T11:34:59.038Z,45.33
2019-03-16T11:35:58.987Z,45.35
2019-03-16T11:36:58.853Z,45.41
2019-03-16T11:37:58.874Z,45.46
2019-03-16T11:38:58.764Z,45.49
2019-03-16T11:39:58.728Z,45.49
2019-03-16T11:40:58.975Z,45.54
2019-03-16T11:41:58.770Z,45.51
2019-03-16T11:42:58.793Z,45.59
2019-03-16T11:43:58.761Z,45.61
2019-03-16T11:44:58.824Z,45.61
2019-03-16T11:45:58.989Z,45.64
2019-03-16T11:46:58.780Z,45.71
2019-03-16T11:47:59.006Z,45.69
2019-03-16T11:48:58.813Z,45.74
2019-03-16T11:49:58.694Z,45.71
2019-03-16T11:50:58.906Z,45.75
2019-03-16T11:51:59.104Z,45.75
2019-03-16T11:52:58.999Z,45.8
2019-03-16T11:53:58.857Z,45.81
2019-03-16T11:54:58.707Z,45.83
2019-03-16T11:55:58.848Z,45.85
2019-03-16T11:56:59.062Z,45.92
2019-03-16T11:57:58.786Z,45.93
2019-03-16T11:58:58.879Z,45.9
2019-03-16T11:59:58.897Z,45.93
2019-03-16T12:00:58.747Z,45.89
2019-03-16T12:02:06.210Z,45.95
2019-03-16T12:02:58.907Z,45.92
2019-03-16T12:03:58.773Z,45.95
2019-03-16T12:04:58.934Z,46
2019-03-16T12:05:58.634Z,46.15
2019-03-16T12:06:59.335Z,46.04
2019-03-16T12:07:58.852Z,45.89
2019-03-16T12:08:58.830Z,45.75
2019-03-16T12:09:58.886Z,45.66
2019-03-16T12:10:58.731Z,45.5
2019-03-16T12:11:58.829Z,45.35
2019-03-16T12:12:58.890Z,45.34
2019-03-16T12:13:59.258Z,45.2
2019-03-16T12:14:59.913Z,45.09
2019-03-16T12:15:58.891Z,45.04
2019-03-16T12:16:58.874Z,45
2019-03-16T12:17:58.813Z,44.95
2019-03-16T12:18:58.744Z,44.89
2019-03-16T12:19:58.906Z,44.88
2019-03-16T12:20:58.859Z,44.82
2019-03-16T12:21:59.005Z,44.8
2019-03-16T12:22:58.805Z,44.8
2019-03-16T12:23:58.942Z,44.78
2019-03-16T12:24:58.707Z,44.75
2019-03-16T12:25:58.875Z,44.79
2019-03-16T12:26:58.842Z,44.69
2019-03-16T12:27:58.838Z,44.72
2019-03-16T12:28:58.842Z,44.73
2019-03-16T12:29:58.687Z,44.7
2019-03-16T12:30:58.875Z,44.73
2019-03-16T12:31:58.885Z,44.71
2019-03-16T12:32:58.804Z,44.7
2019-03-16T12:33:59.092Z,44.6
2019-03-16T12:34:58.739Z,44.71
2019-03-16T12:35:58.881Z,44.69
2019-03-16T12:36:58.999Z,44.68
2019-03-16T12:37:58.791Z,44.7
2019-03-16T12:38:58.914Z,44.74
2019-03-16T12:39:58.869Z,44.69
2019-03-16T12:40:58.682Z,44.65
2019-03-16T12:41:58.918Z,44.62
2019-03-16T12:42:58.681Z,44.64
2019-03-16T12:43:58.755Z,44.67
2019-03-16T12:44:58.878Z,44.66
2019-03-16T12:45:58.718Z,44.62
2019-03-16T12:46:58.831Z,44.65
2019-03-16T12:47:59.295Z,44.59
2019-03-16T12:48:58.689Z,44.62
2019-03-16T12:49:58.777Z,44.57
2019-03-16T12:50:58.885Z,44.61
2019-03-16T12:51:58.842Z,44.51
2019-03-16T12:52:58.662Z,44.69
2019-03-16T12:53:58.792Z,44.75
2019-03-16T12:54:58.937Z,44.89
2019-03-16T12:55:58.921Z,44.97
2019-03-16T12:56:59.109Z,45.02